Nearby METAR Reports

 

KMNN - Marion, Ohio, USA
Distance from station: ENE 4mi, 6km
Updated: 02/07/2023 11:53am
Clear
Clear
 Wind from S
Wind: S 17 mph , 28 km/h, Gust: 24 mph , 39 km/h
Temperature: 52°F , 11°C
Dew Point: 34°F , 1°C
Humidity: 50%
Barometer: 30.00 inHg , 1015.9 hPa
Clouds: Clear
Visibility: 9 miles , 14 km
2023/02/07 16:53 KMNN 071653Z AUTO 19015G21KT 9SM CLR 11/01 A3000 RMK AO2 SLP166 T01060011
KDLZ - Delaware, Ohio, USA
Distance from station: S 21mi, 34km
Updated: 02/07/2023 12:15pm
Clear
Clear
 Wind from SSW
Wind: SSW 16 mph , 26 km/h
Temperature: 50°F , 10°C
Wind Chill: 44°F , 7°C
Dew Point: 34°F , 1°C
Humidity: 54%
Barometer: 30.04 inHg , 1017.3 hPa
Clouds: Clear
Visibility: 10 miles , 16 km
2023/02/07 17:15 KDLZ 071715Z AUTO 20014KT 10SM CLR 10/01 A3004 RMK AO2
 
KMRT - Marysville, Ohio, USA
Distance from station: SSW 28mi, 45km
Updated: 02/07/2023 12:15pm
Clear
Clear
 Wind from SW
Wind: SW 16 mph , 26 km/h
Temperature: 54°F , 12°C
Dew Point: 39°F , 4°C
Humidity: 58%
Barometer: 30.03 inHg , 1016.9 hPa
Clouds: Clear
Visibility: 10 miles , 16 km
2023/02/07 17:15 KMRT 071715Z AUTO 23014KT 10SM CLR 12/04 A3003 RMK AO2 T01230035
KOSU - Columbus/St Univ, Ohio, USA
Distance from station: S 35mi, 56km
Updated: 02/07/2023 11:53am
Few Clouds
Few Clouds
 Wind from SSW
Wind: SSW 16 mph , 26 km/h
Temperature: 55°F , 13°C
Dew Point: 36°F , 2°C
Humidity: 47%
Barometer: 30.05 inHg , 1017.6 hPa
Clouds: Few Clouds
Visibility: 10 miles , 16 km
Cloud details: Few Clouds 5500 ft
2023/02/07 16:53 KOSU 071653Z 21014KT 10SM FEW055 13/02 A3005 RMK AO2 SLP181 T01280017
 
KMFD - Mansfield, Ohio, USA
Distance from station: ENE 36mi, 57km
Updated: 02/07/2023 11:52am
Few Clouds
Few Clouds
 Wind from SSW
Wind: SSW 16 mph , 26 km/h, Gust: 31 mph , 50 km/h
Temperature: 52°F , 11°C
Dew Point: 36°F , 2°C
Humidity: 54%
Barometer: 30.00 inHg , 1015.9 hPa
Clouds: Few Clouds
Visibility: 10 miles , 16 km
Cloud details: Few Clouds 6000 ft
2023/02/07 16:52 KMFD 071652Z 21014G27KT 10SM FEW060 11/02 A3000 RMK AO2 PK WND 21027/1636 SLP167 T01060022
K4I3 - Mt Vernon/Knox, Ohio, USA
Distance from station: ESE 36mi, 58km
Updated: 02/07/2023 12:15pm
Partly cloudy
Partly cloudy
 Wind from SSW
Wind: SSW 13 mph , 20 km/h, Gust: 23 mph , 37 km/h
Temperature: 52°F , 11°C
Dew Point: 36°F , 2°C
Humidity: 54%
Barometer: 30.05 inHg , 1017.6 hPa
Clouds: Partly cloudy
Visibility: 10 miles , 16 km
Cloud details: Partly cloudy 5500 ft
2023/02/07 17:15 K4I3 071715Z AUTO 21011G20KT 10SM SCT055 11/02 A3005 RMK AO2
 
KEDJ - Bellefontaine, Ohio, USA
Distance from station: WSW 39mi, 63km
Updated: 02/04/2023 11:55am
NOT Current
Clear
Clear
 Wind from SSW
Wind: SSW 17 mph , 28 km/h, Gust: 28 mph , 44 km/h
Temperature: 30°F , -1°C
Wind Chill: 18°F , -8°C
Dew Point: 10°F , -12°C
Humidity: 43%
Barometer: 30.30 inHg , 1026.1 hPa
Clouds: Clear
Visibility: 10 miles , 16 km
2023/02/04 16:55 KEDJ 041655Z AUTO 21015G24KT 10SM CLR M01/M12 A3030 RMK A01
KFDY - Findlay, Ohio, USA
Distance from station: NW 41mi, 66km
Updated: 02/07/2023 11:53am
Mostly cloudy
Mostly cloudy
 Wind from SW
Wind: SW 21 mph , 33 km/h, Gust: 26 mph , 43 km/h
Temperature: 54°F , 12°C
Dew Point: 39°F , 4°C
Humidity: 58%
Barometer: 29.95 inHg , 1014.2 hPa
Clouds: Mostly cloudy
Visibility: 10 miles , 16 km
Cloud details: Mostly cloudy 2900 ft
2023/02/07 16:53 KFDY 071653Z AUTO 23018G23KT 10SM BKN029 12/04 A2995 RMK AO2 SLP143 T01170039
 
KCMH - Columbus, Ohio, USA
Distance from station: SSE 43mi, 69km
Updated: 02/07/2023 11:51am
Overcast
Overcast
 Wind from SSW
Wind: SSW 9 mph , 15 km/h
Temperature: 52°F , 11°C
Dew Point: 36°F , 2°C
Humidity: 54%
Barometer: 30.07 inHg , 1018.3 hPa
Clouds: Overcast
Visibility: 10 miles , 16 km
Cloud details: Partly cloudy 6000 ft
Mostly cloudy 8000 ft
Mostly cloudy 12000 ft
Overcast 20000 ft
2023/02/07 16:51 KCMH 071651Z 20008KT 10SM SCT060 BKN080 BKN120 OVC200 11/02 A3007 RMK AO2 SLP185 T01110017
KAOH - Lima, Ohio, USA
Distance from station: W 47mi, 76km
Updated: 02/07/2023 12:14pm
Overcast
Overcast
 Wind from SW
Wind: SW 16 mph , 26 km/h, Gust: 29 mph , 46 km/h
Temperature: 54°F , 12°C
Dew Point: 39°F , 4°C
Humidity: 58%
Barometer: 29.98 inHg , 1015.2 hPa
Clouds: Overcast
Visibility: 10 miles , 16 km
Cloud details: Mostly cloudy 2800 ft
Overcast 9500 ft
2023/02/07 17:14 KAOH 071714Z AUTO 23014G25KT 10SM BKN028 OVC095 12/04 A2998 RMK AO2 PK WND 24027/1656 T01170039
 
KTZR - Columbus/Bolton, Ohio, USA
Distance from station: S 48mi, 77km
Updated: 02/07/2023 11:45am
Few Clouds
Few Clouds
 Wind from SW
Wind: SW 23 mph , 37 km/h, Gust: 29 mph , 46 km/h
Temperature: 54°F , 12°C
Dew Point: 37°F , 3°C
Humidity: 54%
Barometer: 30.07 inHg , 1018.3 hPa
Clouds: Few Clouds
Visibility: 10 miles , 16 km
Cloud details: Few Clouds 4500 ft
2023/02/07 16:45 KTZR 071645Z 22020G25KT 10SM FEW045 12/03 A3007
KUYF - London, Ohio, USA
Distance from station: SSW 49mi, 78km
Updated: 02/07/2023 11:55am
Clear
Clear
 Wind from SW
Wind: SW 18 mph , 30 km/h, Gust: 23 mph , 37 km/h
Temperature: 52°F , 11°C
Dew Point: 36°F , 2°C
Humidity: 54%
Barometer: 30.05 inHg , 1017.6 hPa
Clouds: Clear
Visibility: 10 miles , 16 km
2023/02/07 16:55 KUYF 071655Z AUTO 23016G20KT 10SM CLR 11/02 A3005 RMK AO2